createdAt,value
2023-05-14T00:01:16.797Z,12.97
2023-05-14T00:03:43.875Z,13.57
2023-05-14T00:06:10.906Z,12.93
2023-05-14T00:08:37.580Z,12.37
2023-05-14T00:11:04.331Z,13.33
2023-05-14T00:13:31.000Z,13.33
2023-05-14T00:15:57.666Z,13.77
2023-05-14T00:18:24.430Z,12.93
2023-05-14T00:20:54.691Z,12.37
2023-05-14T00:23:22.219Z,13.40
2023-05-14T00:25:48.916Z,13.27
2023-05-14T00:28:15.806Z,14.13
2023-05-14T00:30:42.477Z,13.00
2023-05-14T00:33:09.253Z,13.00
2023-05-14T00:35:35.978Z,13.10
2023-05-14T00:38:03.494Z,14.07
2023-05-14T00:40:30.425Z,12.97
2023-05-14T00:42:57.381Z,13.27
2023-05-14T00:45:24.062Z,13.97
2023-05-14T00:47:51.248Z,13.80
2023-05-14T00:50:18.453Z,13.23
2023-05-14T00:52:45.402Z,14.27
2023-05-14T00:55:16.502Z,14.17
2023-05-14T00:57:43.812Z,13.93
2023-05-14T01:00:11.070Z,14.63
2023-05-14T01:02:38.001Z,12.20
2023-05-14T01:05:05.482Z,13.23
2023-05-14T01:07:49.346Z,13.30
2023-05-14T01:10:32.582Z,13.53
2023-05-14T01:13:20.907Z,13.13
2023-05-14T01:15:48.180Z,14.27
2023-05-14T01:18:18.201Z,13.40
2023-05-14T01:20:45.924Z,13.47
2023-05-14T01:23:12.607Z,14.23
2023-05-14T01:25:39.292Z,13.80
2023-05-14T01:28:20.595Z,14.23
2023-05-14T01:31:12.044Z,14.47
2023-05-14T01:33:42.470Z,14.17
2023-05-14T01:36:09.857Z,15.87
2023-05-14T01:38:37.965Z,14.00
2023-05-14T01:41:05.939Z,14.03
2023-05-14T01:43:35.321Z,14.23
2023-05-14T01:46:02.033Z,13.63
2023-05-14T01:48:34.437Z,14.40
2023-05-14T01:51:02.312Z,13.13
2023-05-14T01:53:29.054Z,13.93
2023-05-14T01:55:55.879Z,13.87
2023-05-14T01:58:22.778Z,13.73
2023-05-14T02:00:49.583Z,13.27
2023-05-14T02:03:16.351Z,14.93
2023-05-14T02:05:43.111Z,14.70
2023-05-14T02:08:09.948Z,13.83
2023-05-14T02:10:36.746Z,14.90
2023-05-14T02:13:04.130Z,15.53
2023-05-14T02:15:30.948Z,14.23
2023-05-14T02:17:57.703Z,13.53
2023-05-14T02:20:24.659Z,13.93
2023-05-14T02:22:51.767Z,14.67
2023-05-14T02:25:19.041Z,14.70
2023-05-14T02:27:46.359Z,13.87
2023-05-14T02:30:13.267Z,14.33
2023-05-14T02:32:40.081Z,14.23
2023-05-14T02:35:07.532Z,13.80
2023-05-14T02:37:34.842Z,14.83
2023-05-14T02:40:01.739Z,14.13
2023-05-14T02:42:32.361Z,14.07
2023-05-14T02:44:59.665Z,14.70
2023-05-14T02:47:26.471Z,14.93
2023-05-14T02:49:53.257Z,14.87
2023-05-14T02:52:20.036Z,16.17
2023-05-14T02:54:46.811Z,15.77
2023-05-14T02:57:13.624Z,15.60
2023-05-14T02:59:40.312Z,15.87
2023-05-14T03:02:07.635Z,14.10
2023-05-14T03:04:34.804Z,14.93
2023-05-14T03:07:01.480Z,14.47
2023-05-14T03:09:28.131Z,14.57
2023-05-14T03:11:55.167Z,15.47
2023-05-14T03:14:21.815Z,15.53
2023-05-14T03:16:48.710Z,15.30
2023-05-14T03:19:15.439Z,15.17
2023-05-14T03:21:42.200Z,14.60
2023-05-14T03:24:08.945Z,14.70
2023-05-14T03:26:35.705Z,14.60
2023-05-14T03:29:03.880Z,14.97
2023-05-14T03:31:31.530Z,14.67
2023-05-14T03:33:58.340Z,14.03
2023-05-14T03:36:25.038Z,14.93
2023-05-14T03:38:51.806Z,15.20
2023-05-14T03:41:19.926Z,15.90
2023-05-14T03:43:46.619Z,15.17
2023-05-14T03:46:13.320Z,15.30
2023-05-14T03:48:40.021Z,14.20
2023-05-14T03:51:06.695Z,15.87
2023-05-14T03:53:34.129Z,16.67
2023-05-14T03:56:00.802Z,15.17
2023-05-14T03:58:27.505Z,15.40
2023-05-14T04:00:54.265Z,15.40
2023-05-14T04:03:21.061Z,16.17
2023-05-14T04:05:47.823Z,15.30
2023-05-14T04:08:14.478Z,15.43
2023-05-14T04:10:42.424Z,15.70
2023-05-14T04:13:09.247Z,16.57
2023-05-14T04:15:38.254Z,14.40
2023-05-14T04:18:05.393Z,15.27
2023-05-14T04:20:32.134Z,14.73
2023-05-14T04:22:59.014Z,15.97
2023-05-14T04:25:25.751Z,16.00
2023-05-14T04:27:52.447Z,15.73
2023-05-14T04:30:19.352Z,15.73
2023-05-14T04:32:46.049Z,15.03
2023-05-14T04:35:13.022Z,15.57
2023-05-14T04:37:40.467Z,16.83
2023-05-14T04:40:08.774Z,13.90
2023-05-14T04:42:35.429Z,15.03
2023-05-14T04:45:02.865Z,15.00
2023-05-14T04:47:29.785Z,14.80
2023-05-14T04:49:57.781Z,14.93
2023-05-14T04:52:25.361Z,15.30
2023-05-14T04:54:52.090Z,14.83
2023-05-14T04:57:18.964Z,14.80
2023-05-14T04:59:45.847Z,15.53
2023-05-14T05:02:12.614Z,15.27
2023-05-14T05:04:39.503Z,13.93
2023-05-14T05:07:06.237Z,13.47
2023-05-14T05:09:32.980Z,13.43
2023-05-14T05:12:01.504Z,13.23
2023-05-14T05:14:28.173Z,12.87
2023-05-14T05:16:54.815Z,12.87
2023-05-14T05:19:29.134Z,13.27
2023-05-14T05:21:59.188Z,14.17
2023-05-14T05:24:25.859Z,13.50
2023-05-14T05:26:53.934Z,12.17
2023-05-14T05:29:20.617Z,12.23
2023-05-14T05:31:47.393Z,12.87
2023-05-14T05:34:14.163Z,12.27
2023-05-14T05:36:41.333Z,12.00
2023-05-14T05:39:09.199Z,11.77
2023-05-14T05:41:35.886Z,11.37
2023-05-14T05:44:02.615Z,10.90
2023-05-14T05:46:29.257Z,10.57
2023-05-14T05:48:55.939Z,9.77
2023-05-14T05:51:23.713Z,8.60
2023-05-14T05:53:50.526Z,8.90
2023-05-14T05:56:17.187Z,9.13
2023-05-14T05:58:43.930Z,9.05
2023-05-14T06:01:10.577Z,8.65
2023-05-14T06:03:37.270Z,8.57
2023-05-14T06:06:04.089Z,8.48
2023-05-14T06:08:31.905Z,8.50
2023-05-14T06:10:58.600Z,8.10
2023-05-14T06:13:25.258Z,7.95
2023-05-14T06:15:52.324Z,9.07
2023-05-14T06:18:19.062Z,8.20
2023-05-14T06:20:45.779Z,8.27
2023-05-14T06:23:12.518Z,8.20
2023-05-14T06:25:39.425Z,7.80
2023-05-14T06:28:06.086Z,8.57
2023-05-14T06:30:32.812Z,9.23
2023-05-14T06:32:59.502Z,9.00
2023-05-14T06:35:26.212Z,9.38
2023-05-14T06:37:53.460Z,9.07
2023-05-14T06:40:20.371Z,9.00
2023-05-14T06:42:47.167Z,9.50
2023-05-14T06:45:13.844Z,9.15
2023-05-14T06:47:41.310Z,9.50
2023-05-14T06:50:10.691Z,9.98
2023-05-14T06:52:37.855Z,9.00
2023-05-14T06:55:04.837Z,9.25
2023-05-14T06:57:31.568Z,9.85
2023-05-14T06:59:58.307Z,9.10
2023-05-14T07:02:25.075Z,9.88
2023-05-14T07:04:51.769Z,9.68
2023-05-14T07:07:21.099Z,8.75
2023-05-14T07:09:48.246Z,8.77
2023-05-14T07:12:14.934Z,8.88
2023-05-14T07:14:41.712Z,9.05
2023-05-14T07:17:08.418Z,8.25
2023-05-14T07:19:35.241Z,8.68
2023-05-14T07:22:02.011Z,9.48
2023-05-14T07:24:28.807Z,9.32
2023-05-14T07:26:57.287Z,7.95
2023-05-14T07:29:25.491Z,8.07
2023-05-14T07:31:52.224Z,9.55
2023-05-14T07:34:19.555Z,9.52
2023-05-14T07:36:50.219Z,8.32
2023-05-14T07:39:17.085Z,9.07
2023-05-14T07:41:43.942Z,8.90
2023-05-14T07:44:10.733Z,9.20
2023-05-14T07:46:37.627Z,8.57
2023-05-14T07:49:04.677Z,8.27
2023-05-14T07:51:33.406Z,7.90
2023-05-14T07:54:00.680Z,8.35
2023-05-14T07:56:27.551Z,8.68
2023-05-14T07:58:54.408Z,9.00
2023-05-14T08:01:21.212Z,8.23
2023-05-14T08:03:48.009Z,7.97
2023-05-14T08:06:14.894Z,9.38
2023-05-14T08:08:41.548Z,9.20
2023-05-14T08:11:08.543Z,7.80
2023-05-14T08:13:35.288Z,9.30
2023-05-14T08:16:02.203Z,8.27
2023-05-14T08:18:28.955Z,8.20
2023-05-14T08:20:56.009Z,9.20
2023-05-14T08:23:22.702Z,8.38
2023-05-14T08:25:49.390Z,8.48
2023-05-14T08:28:16.062Z,8.13
2023-05-14T08:30:42.768Z,7.70
2023-05-14T08:33:09.604Z,8.38
2023-05-14T08:35:36.273Z,8.93
2023-05-14T08:38:02.976Z,8.25
2023-05-14T08:40:29.992Z,7.90
2023-05-14T08:42:57.383Z,7.45
2023-05-14T08:45:35.111Z,7.93
2023-05-14T08:48:08.686Z,7.72
2023-05-14T08:50:36.117Z,7.28
2023-05-14T08:53:02.818Z,7.53
2023-05-14T08:55:30.999Z,8.18
2023-05-14T08:57:57.822Z,7.45
2023-05-14T09:00:24.976Z,7.65
2023-05-14T09:02:52.955Z,7.32
2023-05-14T09:05:20.813Z,6.70
2023-05-14T09:07:47.502Z,7.00
2023-05-14T09:10:16.032Z,7.50
2023-05-14T09:12:42.765Z,6.57
2023-05-14T09:15:09.700Z,7.07
2023-05-14T09:17:36.416Z,7.50
2023-05-14T09:20:04.117Z,6.32
2023-05-14T09:22:33.620Z,6.10
2023-05-14T09:25:05.809Z,7.45
2023-05-14T09:27:33.484Z,7.20
2023-05-14T09:30:13.754Z,6.50
2023-05-14T09:32:45.793Z,6.30
2023-05-14T09:35:17.832Z,6.88
2023-05-14T09:37:49.528Z,6.75
2023-05-14T09:40:17.425Z,6.80
2023-05-14T09:42:44.452Z,6.68
2023-05-14T09:45:11.909Z,7.68
2023-05-14T09:47:39.865Z,6.78
2023-05-14T09:50:07.310Z,6.80
2023-05-14T09:52:34.371Z,6.78
2023-05-14T09:55:01.633Z,7.30
2023-05-14T09:57:28.303Z,7.85
2023-05-14T09:59:55.026Z,7.88
2023-05-14T10:02:25.930Z,7.57
2023-05-14T10:05:00.354Z,7.22
2023-05-14T10:07:31.636Z,6.60
2023-05-14T10:10:02.958Z,6.95
2023-05-14T10:12:34.476Z,7.25
2023-05-14T10:15:11.117Z,6.03
2023-05-14T10:17:40.949Z,5.90
2023-05-14T10:20:10.081Z,5.82
2023-05-14T10:22:36.865Z,5.43
2023-05-14T10:25:04.657Z,5.60
2023-05-14T10:27:31.998Z,5.35
2023-05-14T10:29:58.664Z,5.38
2023-05-14T10:32:26.474Z,4.90
2023-05-14T10:34:53.685Z,4.90
2023-05-14T10:37:24.796Z,5.70
2023-05-14T10:39:58.797Z,5.50
2023-05-14T10:42:32.480Z,4.60
2023-05-14T10:45:07.300Z,6.00
2023-05-14T10:47:36.348Z,6.18
2023-05-14T10:50:08.486Z,4.85
2023-05-14T10:52:35.777Z,5.53
2023-05-14T10:55:10.209Z,6.15
2023-05-14T10:57:38.923Z,6.05
2023-05-14T11:00:10.762Z,5.55
2023-05-14T11:02:42.093Z,6.35
2023-05-14T11:05:13.785Z,5.45
2023-05-14T11:07:42.581Z,5.60
2023-05-14T11:10:11.586Z,5.75
2023-05-14T11:12:40.769Z,5.80
2023-05-14T11:15:10.389Z,6.15
2023-05-14T11:17:38.673Z,5.82
2023-05-14T11:20:06.597Z,7.13
2023-05-14T11:22:33.994Z,5.88
2023-05-14T11:25:00.825Z,4.88
2023-05-14T11:27:27.680Z,4.57
2023-05-14T11:29:55.952Z,5.60
2023-05-14T11:32:22.826Z,4.57
2023-05-14T11:34:49.669Z,5.10
2023-05-14T11:37:17.323Z,6.13
2023-05-14T11:39:54.276Z,5.90
2023-05-14T11:42:22.408Z,5.40
2023-05-14T11:44:51.585Z,5.10
2023-05-14T11:47:19.992Z,5.65
2023-05-14T11:49:48.717Z,4.97
2023-05-14T11:52:19.120Z,4.20
2023-05-14T11:54:46.669Z,3.90
2023-05-14T11:57:18.877Z,4.28
2023-05-14T11:59:46.072Z,3.78
2023-05-14T12:02:14.616Z,3.70
2023-05-14T12:04:42.831Z,3.80
2023-05-14T12:07:11.557Z,4.20
2023-05-14T12:09:44.192Z,3.92
2023-05-14T12:12:12.899Z,3.72
2023-05-14T12:14:42.606Z,3.72
2023-05-14T12:17:17.722Z,3.58
2023-05-14T12:19:46.501Z,3.50
2023-05-14T12:22:15.956Z,3.50
2023-05-14T12:24:52.219Z,3.53
2023-05-14T12:27:26.287Z,3.67
2023-05-14T12:30:20.569Z,4.00
2023-05-14T12:32:52.760Z,4.25
2023-05-14T12:35:21.449Z,4.03
2023-05-14T12:37:48.280Z,4.15
2023-05-14T12:40:15.080Z,3.70
2023-05-14T12:42:41.786Z,3.53
2023-05-14T12:45:08.967Z,3.78
2023-05-14T12:47:36.987Z,4.43
2023-05-14T12:50:04.460Z,4.07
2023-05-14T12:55:01.366Z,3.95
2023-05-14T12:57:29.152Z,5.13
2023-05-14T12:59:56.041Z,3.88
2023-05-14T13:02:22.700Z,3.85
2023-05-14T13:04:49.380Z,4.07
2023-05-14T13:07:16.251Z,3.90
2023-05-14T13:09:42.949Z,3.58
2023-05-14T13:12:09.787Z,3.17
2023-05-14T13:14:36.505Z,3.60
2023-05-14T13:17:04.236Z,3.22
2023-05-14T13:19:30.974Z,3.63
2023-05-14T13:21:57.663Z,3.85
2023-05-14T13:24:25.052Z,3.95
2023-05-14T13:26:51.828Z,3.50
2023-05-14T13:29:18.618Z,3.90
2023-05-14T13:31:45.309Z,3.20
2023-05-14T13:34:13.181Z,3.28
2023-05-14T13:36:42.178Z,3.83
2023-05-14T13:39:10.791Z,3.58
2023-05-14T13:41:38.588Z,3.53
2023-05-14T13:44:05.388Z,3.42
2023-05-14T13:46:32.132Z,3.70
2023-05-14T13:48:59.592Z,3.28
2023-05-14T13:51:26.293Z,3.08
2023-05-14T13:56:24.596Z,3.05
2023-05-14T13:58:51.293Z,2.88
2023-05-14T14:01:18.079Z,2.97
2023-05-14T14:03:44.781Z,3.15
2023-05-14T14:06:11.932Z,2.85
2023-05-14T14:08:38.731Z,2.75
2023-05-14T14:11:05.522Z,3.70
2023-05-14T14:13:32.223Z,3.40
2023-05-14T14:15:58.925Z,3.20
2023-05-14T14:18:25.763Z,3.63
2023-05-14T14:20:52.573Z,3.03
2023-05-14T14:23:19.695Z,4.20
2023-05-14T14:25:46.521Z,16.40
2023-05-14T14:28:13.642Z,38.83
2023-05-14T14:30:40.433Z,4.32
2023-05-14T14:33:07.233Z,3.53
2023-05-14T14:35:35.355Z,3.92
2023-05-14T14:38:02.107Z,2.72
2023-05-14T14:40:29.791Z,2.60
2023-05-14T14:42:56.520Z,2.50
2023-05-14T14:45:23.605Z,2.67
2023-05-14T14:47:50.864Z,2.95
2023-05-14T14:50:17.622Z,2.90
2023-05-14T14:52:46.087Z,2.85
2023-05-14T14:55:13.136Z,2.40
2023-05-14T14:57:40.006Z,3.13
2023-05-14T15:00:07.282Z,2.90
2023-05-14T15:02:34.320Z,3.03
2023-05-14T15:05:01.302Z,4.22
2023-05-14T15:07:29.577Z,3.55
2023-05-14T15:09:56.389Z,3.70
2023-05-14T15:12:23.120Z,2.50
2023-05-14T15:14:49.832Z,3.22
2023-05-14T15:17:16.594Z,2.95
2023-05-14T15:19:43.380Z,3.50
2023-05-14T15:22:10.172Z,3.90
2023-05-14T15:24:36.940Z,3.65
2023-05-14T15:27:03.782Z,3.38
2023-05-14T15:29:30.603Z,3.30
2023-05-14T15:31:57.534Z,2.92
2023-05-14T15:34:24.269Z,2.95
2023-05-14T15:36:50.914Z,3.10
2023-05-14T15:39:17.645Z,3.50
2023-05-14T15:41:45.873Z,3.03
2023-05-14T15:44:12.542Z,3.40
2023-05-14T15:46:39.271Z,3.35
2023-05-14T15:49:06.056Z,3.65
2023-05-14T15:51:32.827Z,3.35
2023-05-14T15:53:59.523Z,3.50
2023-05-14T15:56:26.186Z,3.85
2023-05-14T15:58:52.868Z,3.67
2023-05-14T16:01:19.643Z,3.55
2023-05-14T16:03:46.464Z,3.40
2023-05-14T16:06:13.265Z,3.72
2023-05-14T16:08:39.976Z,3.33
2023-05-14T16:11:07.589Z,3.70
2023-05-14T16:13:35.737Z,3.90
2023-05-14T16:16:02.576Z,3.40
2023-05-14T16:18:29.696Z,3.67
2023-05-14T16:20:56.522Z,3.08
2023-05-14T16:23:23.299Z,3.97
2023-05-14T16:25:50.205Z,3.83
2023-05-14T16:28:16.931Z,3.17
2023-05-14T16:30:43.610Z,3.67
2023-05-14T16:33:10.490Z,3.53
2023-05-14T16:35:37.338Z,4.50
2023-05-14T16:38:04.160Z,4.05
2023-05-14T16:40:30.844Z,4.00
2023-05-14T16:42:57.643Z,4.10
2023-05-14T16:45:24.610Z,5.00
2023-05-14T16:47:51.692Z,4.35
2023-05-14T16:50:19.547Z,4.10
2023-05-14T16:52:46.551Z,4.47
2023-05-14T16:55:13.305Z,4.60
2023-05-14T16:57:40.041Z,4.53
2023-05-14T17:00:09.913Z,4.22
2023-05-14T17:02:36.700Z,4.70
2023-05-14T17:05:04.146Z,4.55
2023-05-14T17:07:31.473Z,4.72
2023-05-14T17:10:00.021Z,5.80
2023-05-14T17:12:27.005Z,5.70
2023-05-14T17:14:53.745Z,6.57
2023-05-14T17:17:20.542Z,6.43
2023-05-14T17:19:47.289Z,6.70
2023-05-14T17:22:14.186Z,6.40
2023-05-14T17:24:42.390Z,7.00
2023-05-14T17:27:09.192Z,6.50
2023-05-14T17:29:35.968Z,6.72
2023-05-14T17:32:03.610Z,7.05
2023-05-14T17:34:30.570Z,7.07
2023-05-14T17:36:57.741Z,7.20
2023-05-14T17:39:24.534Z,7.20
2023-05-14T17:41:51.374Z,7.38
2023-05-14T17:44:18.225Z,7.50
2023-05-14T17:46:45.811Z,7.63
2023-05-14T17:49:12.782Z,6.93
2023-05-14T17:51:39.618Z,7.78
2023-05-14T17:54:06.378Z,7.47
2023-05-14T17:56:33.516Z,7.90
2023-05-14T17:59:00.520Z,8.55
2023-05-14T18:01:30.984Z,8.55
2023-05-14T18:03:57.901Z,8.55
2023-05-14T18:06:25.063Z,9.60
2023-05-14T18:08:51.834Z,8.95
2023-05-14T18:11:18.816Z,9.35
2023-05-14T18:13:46.133Z,8.82
2023-05-14T18:16:13.073Z,9.52
2023-05-14T18:18:39.969Z,8.18
2023-05-14T18:21:06.932Z,9.02
2023-05-14T18:23:33.874Z,9.15
2023-05-14T18:26:03.843Z,8.45
2023-05-14T18:28:30.928Z,9.80
2023-05-14T18:31:00.690Z,9.70
2023-05-14T18:33:27.579Z,8.52
2023-05-14T18:35:54.352Z,9.63
2023-05-14T18:38:21.079Z,9.63
2023-05-14T18:40:49.305Z,9.05
2023-05-14T18:43:18.412Z,8.30
2023-05-14T18:45:47.097Z,8.88
2023-05-14T18:48:14.469Z,9.15
2023-05-14T18:50:41.355Z,9.25
2023-05-14T18:53:08.526Z,8.65
2023-05-14T18:55:36.551Z,9.30
2023-05-14T18:58:03.428Z,8.95
2023-05-14T19:00:30.374Z,8.48
2023-05-14T19:02:57.093Z,8.80
2023-05-14T19:05:24.296Z,8.40
2023-05-14T19:07:51.159Z,9.05
2023-05-14T19:10:17.936Z,8.20
2023-05-14T19:12:45.980Z,8.75
2023-05-14T19:15:12.767Z,9.00
2023-05-14T19:17:39.649Z,8.75
2023-05-14T19:20:07.995Z,8.87
2023-05-14T19:22:34.648Z,8.47
2023-05-14T19:25:01.372Z,8.70
2023-05-14T19:27:28.373Z,9.20
2023-05-14T19:29:55.035Z,9.87
2023-05-14T19:32:21.844Z,9.20
2023-05-14T19:34:49.496Z,8.40
2023-05-14T19:37:17.599Z,8.70
2023-05-14T19:39:44.277Z,8.90
2023-05-14T19:42:10.962Z,9.20
2023-05-14T19:44:37.634Z,9.23
2023-05-14T19:47:04.915Z,9.30
2023-05-14T19:49:32.480Z,9.33
2023-05-14T19:51:59.132Z,8.93
2023-05-14T19:54:25.797Z,8.70
2023-05-14T19:56:52.478Z,8.47
2023-05-14T19:59:19.135Z,8.83
2023-05-14T20:01:46.120Z,8.40
2023-05-14T20:04:14.066Z,8.70
2023-05-14T20:06:41.590Z,8.63
2023-05-14T20:09:08.376Z,8.73
2023-05-14T20:11:35.097Z,9.93
2023-05-14T20:14:01.769Z,9.37
2023-05-14T20:16:28.655Z,8.73
2023-05-14T20:18:58.112Z,9.10
2023-05-14T20:21:24.837Z,8.97
2023-05-14T20:23:51.502Z,9.17
2023-05-14T20:26:18.266Z,9.33
2023-05-14T20:28:47.043Z,10.50
2023-05-14T20:31:13.832Z,9.73
2023-05-14T20:33:40.691Z,10.90
2023-05-14T20:36:07.527Z,10.73
2023-05-14T20:38:34.958Z,10.10
2023-05-14T20:41:01.713Z,10.33
2023-05-14T20:43:28.466Z,10.53
2023-05-14T20:45:58.536Z,10.73
2023-05-14T20:48:25.606Z,11.00
2023-05-14T20:50:52.263Z,11.07
2023-05-14T20:53:19.584Z,10.00
2023-05-14T20:55:46.347Z,11.20
2023-05-14T20:58:13.002Z,11.30
2023-05-14T21:00:39.832Z,11.73
2023-05-14T21:03:06.761Z,11.50
2023-05-14T21:05:33.685Z,11.40
2023-05-14T21:08:00.362Z,10.90
2023-05-14T21:10:27.177Z,12.20
2023-05-14T21:12:54.023Z,12.10
2023-05-14T21:15:20.876Z,12.10
2023-05-14T21:17:47.653Z,12.37
2023-05-14T21:20:15.553Z,11.70
2023-05-14T21:22:42.301Z,11.00
2023-05-14T21:25:09.377Z,11.40
2023-05-14T21:27:36.176Z,11.63
2023-05-14T21:30:03.126Z,12.30
2023-05-14T21:32:29.827Z,11.53
2023-05-14T21:34:56.514Z,12.07
2023-05-14T21:37:23.211Z,12.03
2023-05-14T21:39:49.878Z,11.67
2023-05-14T21:42:17.639Z,11.47
2023-05-14T21:44:44.307Z,12.80
2023-05-14T21:47:11.463Z,12.03
2023-05-14T21:49:38.147Z,11.90
2023-05-14T21:52:05.183Z,12.33
2023-05-14T21:54:31.929Z,11.03
2023-05-14T21:56:58.700Z,12.07
2023-05-14T21:59:25.395Z,11.03
2023-05-14T22:02:06.422Z,12.50
2023-05-14T22:04:34.387Z,14.30
2023-05-14T22:07:01.540Z,13.50
2023-05-14T22:09:28.262Z,12.70
2023-05-14T22:11:54.901Z,13.30
2023-05-14T22:14:21.595Z,12.30
2023-05-14T22:16:48.466Z,12.47
2023-05-14T22:19:16.412Z,13.63
2023-05-14T22:21:43.231Z,11.77
2023-05-14T22:24:09.898Z,12.27
2023-05-14T22:26:36.591Z,11.60
2023-05-14T22:29:03.322Z,11.73
2023-05-14T22:31:30.010Z,12.60
2023-05-14T22:33:56.749Z,11.63
2023-05-14T22:36:23.493Z,12.17
2023-05-14T22:38:50.291Z,12.27
2023-05-14T22:41:19.946Z,13.20
2023-05-14T22:43:48.673Z,13.40
2023-05-14T22:46:16.036Z,12.50
2023-05-14T22:48:42.777Z,13.13
2023-05-14T22:51:09.540Z,12.43
2023-05-14T22:53:36.215Z,12.50
2023-05-14T22:56:03.170Z,11.93
2023-05-14T22:58:29.863Z,13.97
2023-05-14T23:00:56.827Z,12.83
2023-05-14T23:03:23.479Z,12.00
2023-05-14T23:05:50.308Z,13.13
2023-05-14T23:08:16.973Z,12.73
2023-05-14T23:10:43.621Z,12.80
2023-05-14T23:13:10.392Z,12.83
2023-05-14T23:15:38.712Z,12.63
2023-05-14T23:18:05.675Z,12.57
2023-05-14T23:20:32.394Z,12.37
2023-05-14T23:22:59.069Z,13.43
2023-05-14T23:25:25.887Z,14.13
2023-05-14T23:27:52.762Z,13.83
2023-05-14T23:30:19.655Z,13.87
2023-05-14T23:32:46.374Z,14.10
2023-05-14T23:35:13.165Z,13.57
2023-05-14T23:37:46.864Z,12.90
2023-05-14T23:40:13.650Z,13.83
2023-05-14T23:42:40.328Z,13.00
2023-05-14T23:45:08.185Z,13.30
2023-05-14T23:47:35.280Z,14.10
2023-05-14T23:50:02.319Z,13.93
2023-05-14T23:52:28.979Z,12.50
2023-05-14T23:54:55.735Z,13.73
2023-05-14T23:57:22.405Z,13.10
2023-05-14T23:59:49.088Z,12.63
